Time;durP1;ratioP1;P1;durP2;ratioP2;P2;SDS_P1;SDS_P2;PMS_P1;PMS_P2;Temp;Humidity;BMP_temperature;BMP_pressure;BME280_temperature;BME280_humidity;BME280_pressure;Samples;Min_cycle;Max_cycle;Signal;HPM_P1;HPM_P2
2020/12/11 03:29:56;;;;;;;;;;;;;;;;;;6150305;23;748;-83
2020/12/11 03:32:30;;;;;;;;;;;;;;;;;;6149736;23;1193;-83
2020/12/11 03:35:00;;;;;;;;;;;;;;;;;;6138722;23;1619;-83
2020/12/11 03:37:28;;;;;;;;;;;;;;;;;;6123812;23;1873;-83
2020/12/11 03:39:58;;;;;;;;;;;;;;;;;;6148774;23;1484;-84
2020/12/11 03:43:07;;;;;;;;;;;;;;;;;;6136716;23;1020;-83
2020/12/11 03:45:36;;;;;;;;;;;;;;;;;;6147516;23;1088;-83
2020/12/11 03:48:03;;;;;;;;;;;;;;;;;;6148934;23;1218;-83
2020/12/11 03:50:31;;;;;;;;;;;;;;;;;;6149111;23;1680;-84
2020/12/11 03:52:57;;;;;;;;;;;;;;;;;;6149897;23;1123;-82
2020/12/11 03:58:05;;;;;;;;;;;;;;;;;;6148934;23;1870;-83
2020/12/11 04:00:34;;;;;;;;;;;;;;;;;;6124458;23;1257;-82
2020/12/11 04:03:06;;;;;;;;;;;;;;;;;;6148697;23;1162;-83
2020/12/11 04:05:34;;;;;;;;;;;;;;;;;;6124782;23;1193;-83
2020/12/11 04:08:22;;;;;;;;;;;;;;;;;;6125053;23;1300;-83
2020/12/11 04:10:51;;;;;;;;;;;;;;;;;;6149475;23;1131;-84
2020/12/11 04:13:23;;;;;;;;;;;;;;;;;;6149166;23;1417;-83
2020/12/11 04:15:55;;;;;;;;;;;;;;;;;;6149179;23;1421;-83
2020/12/11 04:18:22;;;;;;;;;;;;;;;;;;6077171;23;1890;-83
2020/12/11 04:20:50;;;;;;;;;;;;;;;;;;6149186;23;1575;-83
2020/12/11 04:23:18;;;;;;;;;;;;;;;;;;6148971;23;1163;-83
2020/12/11 04:25:46;;;;;;;;;;;;;;;;;;6149062;23;1123;-83
2020/12/11 04:28:15;;;;;;;;;;;;;;;;;;6162818;23;1173;-84
2020/12/11 04:30:58;;;;;;;;;;;;;;;;;;6178486;23;1131;-83
2020/12/11 04:33:33;;;;;;;;;;;;;;;;;;6180855;23;1087;-85
2020/12/11 04:38:47;;;;;;;;;;;;;;;;;;6180354;23;1700;-82
2020/12/11 04:41:15;;;;;;;;;;;;;;;;;;6175948;23;1217;-83
2020/12/11 04:43:41;;;;;;;;;;;;;;;;;;6179563;23;1137;-83
2020/12/11 04:46:10;;;;;;;;;;;;;;;;;;6179954;23;1517;-84
2020/12/11 04:48:40;;;;;;;;;;;;;;;;;;6180375;23;1128;-84
2020/12/11 04:51:09;;;;;;;;;;;;;;;;;;6181198;23;1127;-84
2020/12/11 04:53:36;;;;;;;;;;;;;;;;;;6180341;23;1205;-84
2020/12/11 04:56:29;;;;;;;;;;;;;;;;;;6181630;23;1495;-84
2020/12/11 05:01:38;;;;;;;;;;;;;;;;;;6171332;23;1072;-84
2020/12/11 05:06:54;;;;;;;;;;;;;;;;;;6175705;23;891;-84
2020/12/11 05:09:23;;;;;;;;;;;;;;;;;;6181622;23;1119;-85
2020/12/11 05:11:51;;;;;;;;;;;;;;;;;;6180979;23;1527;-83
2020/12/11 05:14:21;;;;;;;;;;;;;;;;;;6181453;23;1365;-84
2020/12/11 05:17:05;;;;;;;;;;;;;;;;;;6181919;23;1905;-84
2020/12/11 05:19:34;;;;;;;;;;;;;;;;;;6181545;23;1617;-85
2020/12/11 05:22:10;;;;;;;;;;;;;;;;;;6151278;23;1835;-84
2020/12/11 05:27:45;;;;;;;;;;;;;;;;;;6179072;23;1219;-84
2020/12/11 05:39:09;;;;;;;;;;;;;;;;;;6184050;23;1114;-84
2020/12/11 05:47:31;;;;;;;;;;;;;;;;;;6185606;23;1356;-84
2020/12/11 14:25:16;;;;;;;;;;;;;;;;;;6083988;23;1905;-77
2020/12/11 14:33:11;;;;;;;;;;;;;;;;;;5040397;28;9226;-68
2020/12/11 14:35:37;;;;;;;;;;;;;;;;;;5035052;28;9087;-68
2020/12/11 14:38:11;;;;;;;;;;;;;;;;;;5041769;28;9095;-68
2020/12/11 14:40:37;;;;;;;;;;;;;;;;;;5019024;28;10233;-68
2020/12/11 14:43:03;;;;;;;;;;;;;;;;;;4996898;28;9341;-68
2020/12/11 14:45:29;;;;;;;;;;;;;;;;;;5001668;28;9261;-68
2020/12/11 14:47:55;;;;;;;;;;;;;;;;;;4999053;28;10560;-67
2020/12/11 14:50:22;;;;;;;;;;;;;;;;;;5003001;28;9391;-68
2020/12/11 14:52:48;;;;;;;;;;;;;;;;;;5003040;28;9149;-68
2020/12/11 14:55:14;;;;;;;;;;;;;;;;;;5009336;28;9206;-68
2020/12/11 14:57:40;;;;;;;;;;;;;;;;;;5006701;28;3710;-67
2020/12/11 15:00:06;;;;;;;;;;;;;;;;;;5004796;28;10792;-68
2020/12/11 15:02:32;;;;;;;;;;;;;;;;;;5006530;28;10613;-69
2020/12/11 15:04:58;;;;;;;;;;;;;;;;;;5006835;28;10636;-68
2020/12/11 15:07:25;;;;;;;;;;;;;;;;;;5006465;28;9162;-69
2020/12/11 15:09:51;;;;;;;;;;;;;;;;;;4995775;28;3736;-68
2020/12/11 15:12:17;;;;;;;;;;;;;;;;;;5008702;28;10623;-68
2020/12/11 15:14:43;;;;;;;;;;;;;;;;;;5000955;28;10615;-68
2020/12/11 15:17:09;;;;;;;;;;;;;;;;;;5003259;28;10525;-68
2020/12/11 15:19:35;;;;;;;;;;;;;;;;;;5000758;28;10528;-70
2020/12/11 15:22:00;;;;;;;;;;;;;;;;;;5007695;28;10620;-68
2020/12/11 15:24:27;;;;;;;;;;;;;;;;;;4995822;28;11072;-68
2020/12/11 15:26:58;;;;;;;;;;;;;;;;;;5001086;28;9223;-69
2020/12/11 15:29:24;;;;;;;;;;;;;;;;;;4997010;28;9278;-69
2020/12/11 15:31:50;;;;;;;;;;;;;;;;;;4998171;28;9344;-69
2020/12/11 15:34:16;;;;;;;;;;;;;;;;;;5000702;28;9185;-69
2020/12/11 15:36:43;;;;;;;;;;;;;;;;;;5002998;28;4028;-69
2020/12/11 15:39:09;;;;;;;;;;;;;;;;;;4991041;28;9396;-68
2020/12/11 15:41:36;;;;;;;;;;;;;;;;;;4990931;28;9201;-68
2020/12/11 15:44:02;;;;;;;;;;;;;;;;;;4986148;28;9154;-69
2020/12/11 15:46:28;;;;;;;;;;;;;;;;;;4990301;28;9488;-69
2020/12/11 15:48:54;;;;;;;;;;;;;;;;;;4994759;28;9363;-68
2020/12/11 15:51:22;;;;;;;;;;;;;;;;;;4988042;28;9627;-68
2020/12/11 15:53:48;;;;;;;;;;;;;;;;;;4984933;28;10798;-69
2020/12/11 15:56:14;;;;;;;;;;;;;;;;;;4992469;28;9194;-69
2020/12/11 15:58:41;;;;;;;;;;;;;;;;;;4987849;28;9259;-68
2020/12/11 16:01:07;;;;;;;;;;;;;;;;;;4987199;28;9167;-69
2020/12/11 16:03:33;;;;;;;;;;;;;;;;;;4983901;28;9472;-68
2020/12/11 16:05:59;;;;;;;;;;;;;;;;;;4989647;28;10728;-68
2020/12/11 16:08:24;;;;;;;;;;;;;;;;;;4986932;28;10590;-68
2020/12/11 16:10:51;;;;;;;;;;;;;;;;;;4987089;28;10653;-69
2020/12/11 16:13:17;;;;;;;;;;;;;;;;;;4984304;28;10772;-69
2020/12/11 16:15:44;;;;;;;;;;;;;;;;;;4982971;28;4074;-69
2020/12/11 16:18:11;;;;;;;;;;;;;;;;;;4984847;28;10637;-68
2020/12/11 16:20:37;;;;;;;;;;;;;;;;;;4985680;28;10665;-68
2020/12/11 16:23:03;;;;;;;;;;;;;;;;;;4988526;28;10731;-67
2020/12/11 16:25:28;;;;;;;;;;;;;;;;;;4990177;28;10898;-68
2020/12/11 16:27:56;;;;;;;;;;;;;;;;;;4998761;28;10623;-69
2020/12/11 16:30:22;;;;;;;;;;;;;;;;;;4996931;28;10899;-68
2020/12/11 16:32:48;;;;;;;;;;;;;;;;;;4996208;28;11730;-67
2020/12/11 16:35:14;;;;;;;;;;;;;;;;;;4999234;28;10756;-67
2020/12/11 16:37:42;;;;;;;;;;;;;;;;;;4998936;28;10406;-67
2020/12/11 16:40:08;;;;;;;;;;;;;;;;;;5002615;28;10392;-67
2020/12/11 16:42:36;;;;;;;;;;;;;;;;;;5006670;28;3760;-68
2020/12/11 16:45:06;;;;;;;;;;;;;;;;;;5000508;28;10673;-68
2020/12/11 16:47:35;;;;;;;;;;;;;;;;;;4999976;28;10608;-68
2020/12/11 16:50:02;;;;;;;;;;;;;;;;;;5000107;28;8817;-68
2020/12/11 16:52:28;;;;;;;;;;;;;;;;;;4996590;28;9206;-68
2020/12/11 16:54:54;;;;;;;;;;;;;;;;;;5003703;28;7309;-70
2020/12/11 16:57:24;;;;;;;;;;;;;;;;;;4995332;28;9562;-68
2020/12/11 16:59:53;;;;;;;;;;;;;;;;;;4993388;28;9269;-69
2020/12/11 17:02:24;;;;;;;;;;;;;;;;;;4993795;28;9268;-68
2020/12/11 17:05:00;;;;;;;;;;;;;;;;;;4991568;28;9257;-68
2020/12/11 17:07:30;;;;;;;;;;;;;;;;;;5003797;28;9118;-68
2020/12/11 17:09:56;;;;;;;;;;;;;;;;;;5007534;28;7504;-68
2020/12/11 17:12:22;;;;;;;;;;;;;;;;;;4994090;28;9615;-68
2020/12/11 17:14:49;;;;;;;;;;;;;;;;;;5002066;28;9132;-68
2020/12/11 17:17:15;;;;;;;;;;;;;;;;;;5000934;28;10534;-68
2020/12/11 17:19:43;;;;;;;;;;;;;;;;;;5001010;28;9266;-69
2020/12/11 17:22:09;;;;;;;;;;;;;;;;;;5005292;28;10465;-68
2020/12/11 17:24:36;;;;;;;;;;;;;;;;;;4980270;28;10658;-67
2020/12/11 17:27:02;;;;;;;;;;;;;;;;;;4980479;28;10945;-70
2020/12/11 17:29:30;;;;;;;;;;;;;;;;;;4976687;28;8933;-68
2020/12/11 17:32:08;;;;;;;;;;;;;;;;;;4974391;28;9187;-68
2020/12/11 17:34:38;;;;;;;;;;;;;;;;;;4987484;28;9196;-68
2020/12/11 17:37:07;;;;;;;;;;;;;;;;;;4978305;28;9180;-68
2020/12/11 17:39:32;;;;;;;;;;;;;;;;;;4977447;28;9466;-67
2020/12/11 17:41:59;;;;;;;;;;;;;;;;;;4975588;28;9106;-67
2020/12/11 17:44:27;;;;;;;;;;;;;;;;;;4975108;28;8804;-67
2020/12/11 17:46:53;;;;;;;;;;;;;;;;;;4977688;28;9133;-68
2020/12/11 17:49:20;;;;;;;;;;;;;;;;;;4982294;28;9318;-68
2020/12/11 17:51:46;;;;;;;;;;;;;;;;;;4973275;28;4232;-68
2020/12/11 17:54:11;;;;;;;;;;;;;;;;;;4989893;28;10503;-67
2020/12/11 17:56:40;;;;;;;;;;;;;;;;;;4980821;28;9276;-70
2020/12/11 17:59:07;;;;;;;;;;;;;;;;;;4993549;28;9297;-69
2020/12/11 18:01:33;;;;;;;;;;;;;;;;;;4977423;28;9299;-68
2020/12/11 18:03:59;;;;;;;;;;;;;;;;;;4969005;28;9141;-69
2020/12/11 18:06:28;;;;;;;;;;;;;;;;;;4976733;28;9542;-67
2020/12/11 18:08:55;;;;;;;;;;;;;;;;;;4970950;28;9286;-67
2020/12/11 18:11:24;;;;;;;;;;;;;;;;;;4972103;28;5028;-68
2020/12/11 18:13:49;;;;;;;;;;;;;;;;;;4983679;28;7919;-66
2020/12/11 18:16:16;;;;;;;;;;;;;;;;;;4981001;28;9084;-67
2020/12/11 18:18:42;;;;;;;;;;;;;;;;;;4985644;28;3762;-67
2020/12/11 18:21:08;;;;;;;;;;;;;;;;;;4977382;28;9167;-67
2020/12/11 18:23:34;;;;;;;;;;;;;;;;;;4977419;28;9204;-67
2020/12/11 18:26:00;;;;;;;;;;;;;;;;;;4984586;28;9086;-67
2020/12/11 18:28:30;;;;;;;;;;;;;;;;;;4974028;28;9099;-67
2020/12/11 18:30:56;;;;;;;;;;;;;;;;;;4974051;28;6980;-69
2020/12/11 18:33:22;;;;;;;;;;;;;;;;;;4975958;28;9425;-68
2020/12/11 18:35:48;;;;;;;;;;;;;;;;;;4972028;28;9155;-67
2020/12/11 18:38:14;;;;;;;;;;;;;;;;;;4971337;28;9228;-69
2020/12/11 18:40:40;;;;;;;;;;;;;;;;;;4988831;28;7081;-67
2020/12/11 18:43:06;;;;;;;;;;;;;;;;;;4996355;28;9305;-68
2020/12/11 18:45:32;;;;;;;;;;;;;;;;;;4971007;28;9656;-67
2020/12/11 18:47:58;;;;;;;;;;;;;;;;;;4984948;28;10872;-69
2020/12/11 18:50:26;;;;;;;;;;;;;;;;;;4974093;28;10610;-67
2020/12/11 18:52:52;;;;;;;;;;;;;;;;;;4984027;28;10669;-68
2020/12/11 18:55:22;;;;;;;;;;;;;;;;;;4966459;28;10925;-67
2020/12/11 18:57:48;;;;;;;;;;;;;;;;;;4978479;28;4111;-68
2020/12/11 19:00:14;;;;;;;;;;;;;;;;;;4971373;28;10831;-67
2020/12/11 19:02:41;;;;;;;;;;;;;;;;;;4979978;28;10510;-68
2020/12/11 19:05:07;;;;;;;;;;;;;;;;;;4971433;28;10692;-68
2020/12/11 19:07:34;;;;;;;;;;;;;;;;;;4972788;28;10543;-67
2020/12/11 19:10:00;;;;;;;;;;;;;;;;;;4977486;28;10687;-68
2020/12/11 19:12:26;;;;;;;;;;;;;;;;;;4973259;28;11013;-68
2020/12/11 19:14:52;;;;;;;;;;;;;;;;;;4972181;28;10694;-68
2020/12/11 19:17:17;;;;;;;;;;;;;;;;;;4979737;28;9040;-67
2020/12/11 19:19:43;;;;;;;;;;;;;;;;;;4970281;28;9304;-67
2020/12/11 19:22:09;;;;;;;;;;;;;;;;;;4980348;28;10343;-68
2020/12/11 19:24:36;;;;;;;;;;;;;;;;;;4980951;28;9309;-69
2020/12/11 19:27:03;;;;;;;;;;;;;;;;;;4980556;28;9060;-69
2020/12/11 19:29:29;;;;;;;;;;;;;;;;;;4978236;28;9201;-69
2020/12/11 19:31:55;;;;;;;;;;;;;;;;;;4986259;28;9461;-68
2020/12/11 19:34:22;;;;;;;;;;;;;;;;;;4980354;28;10579;-67
2020/12/11 19:36:49;;;;;;;;;;;;;;;;;;4991252;28;4113;-68
2020/12/11 19:39:15;;;;;;;;;;;;;;;;;;4979343;28;9525;-68
2020/12/11 19:41:43;;;;;;;;;;;;;;;;;;4989672;28;9011;-68
2020/12/11 19:44:10;;;;;;;;;;;;;;;;;;4972520;28;10644;-68
2020/12/11 19:46:36;;;;;;;;;;;;;;;;;;4978563;28;9190;-68
2020/12/11 19:49:03;;;;;;;;;;;;;;;;;;4978281;28;9232;-68
2020/12/11 19:51:29;;;;;;;;;;;;;;;;;;4972270;28;10313;-67
2020/12/11 19:53:55;;;;;;;;;;;;;;;;;;4992480;28;10713;-68
2020/12/11 19:56:21;;;;;;;;;;;;;;;;;;4988680;28;10518;-67
2020/12/11 19:58:47;;;;;;;;;;;;;;;;;;5002017;28;10788;-67
2020/12/11 20:01:13;;;;;;;;;;;;;;;;;;4997477;28;7780;-69
2020/12/11 20:03:39;;;;;;;;;;;;;;;;;;5002769;28;4121;-68
2020/12/11 20:06:10;;;;;;;;;;;;;;;;;;4995025;28;9254;-69
2020/12/11 20:11:20;;;;;;;;;;;;;;;;;;5000253;28;11171;-68
2020/12/11 20:13:46;;;;;;;;;;;;;;;;;;4999574;28;10736;-69
2020/12/11 20:16:13;;;;;;;;;;;;;;;;;;5000511;28;10508;-68
2020/12/11 20:18:39;;;;;;;;;;;;;;;;;;5006661;28;3754;-69
2020/12/11 20:21:05;;;;;;;;;;;;;;;;;;4997544;28;9247;-69
2020/12/11 20:23:30;;;;;;;;;;;;;;;;;;4996096;28;9054;-69
2020/12/11 20:25:57;;;;;;;;;;;;;;;;;;4993608;28;10354;-68
2020/12/11 20:28:23;;;;;;;;;;;;;;;;;;4997211;28;9066;-67
2020/12/11 20:30:48;;;;;;;;;;;;;;;;;;4996545;28;4052;-68
2020/12/11 20:33:15;;;;;;;;;;;;;;;;;;4995316;28;9500;-67
2020/12/11 20:35:41;;;;;;;;;;;;;;;;;;4995981;28;9390;-68
2020/12/11 20:38:07;;;;;;;;;;;;;;;;;;4991819;28;9098;-68
2020/12/11 20:40:33;;;;;;;;;;;;;;;;;;4998896;28;8769;-68
2020/12/11 20:42:59;;;;;;;;;;;;;;;;;;5013476;28;10409;-69
2020/12/11 20:45:25;;;;;;;;;;;;;;;;;;5021506;28;9454;-67
2020/12/11 20:47:51;;;;;;;;;;;;;;;;;;5015140;28;9208;-68
2020/12/11 20:50:28;;;;;;;;;;;;;;;;;;5019675;28;9087;-68
2020/12/11 20:52:54;;;;;;;;;;;;;;;;;;5017054;28;9175;-68
2020/12/11 20:55:19;;;;;;;;;;;;;;;;;;5023636;28;9171;-66
2020/12/11 20:57:45;;;;;;;;;;;;;;;;;;5027371;28;4256;-67
2020/12/11 21:00:11;;;;;;;;;;;;;;;;;;5023326;28;9290;-68
2020/12/11 21:02:37;;;;;;;;;;;;;;;;;;5017781;28;9189;-69
2020/12/11 21:05:03;;;;;;;;;;;;;;;;;;5018680;28;9291;-69
2020/12/11 21:07:30;;;;;;;;;;;;;;;;;;5010885;28;9056;-68
2020/12/11 21:09:56;;;;;;;;;;;;;;;;;;5016336;28;3779;-69
2020/12/11 21:12:22;;;;;;;;;;;;;;;;;;5018197;28;8628;-70
2020/12/11 21:14:48;;;;;;;;;;;;;;;;;;5015186;28;9186;-68
2020/12/11 21:17:14;;;;;;;;;;;;;;;;;;5006660;28;9143;-68
2020/12/11 21:19:39;;;;;;;;;;;;;;;;;;5007752;28;9211;-67
2020/12/11 21:22:06;;;;;;;;;;;;;;;;;;5014380;28;9117;-67
2020/12/11 21:24:32;;;;;;;;;;;;;;;;;;5015366;28;9236;-67
2020/12/11 21:26:58;;;;;;;;;;;;;;;;;;5014703;28;9344;-67
2020/12/11 21:29:24;;;;;;;;;;;;;;;;;;5008116;28;9252;-66
2020/12/11 21:31:50;;;;;;;;;;;;;;;;;;5006810;28;9205;-67
2020/12/11 21:37:00;;;;;;;;;;;;;;;;;;5021859;28;8801;-69
2020/12/11 21:39:26;;;;;;;;;;;;;;;;;;5023013;28;10422;-68
2020/12/11 21:41:53;;;;;;;;;;;;;;;;;;5020076;28;10591;-68
2020/12/11 21:44:19;;;;;;;;;;;;;;;;;;5015357;28;10429;-68
2020/12/11 21:46:45;;;;;;;;;;;;;;;;;;5025995;28;9245;-69
2020/12/11 21:49:12;;;;;;;;;;;;;;;;;;5020278;28;9200;-70
2020/12/11 21:51:37;;;;;;;;;;;;;;;;;;5019294;28;9531;-71
2020/12/11 21:54:03;;;;;;;;;;;;;;;;;;5012991;28;9546;-70
2020/12/11 21:56:29;;;;;;;;;;;;;;;;;;5010554;28;10382;-71
2020/12/11 21:58:56;;;;;;;;;;;;;;;;;;5010398;28;9054;-71
2020/12/11 22:01:22;;;;;;;;;;;;;;;;;;5016794;28;10740;-71
2020/12/11 22:03:48;;;;;;;;;;;;;;;;;;5030649;28;4209;-71
2020/12/11 22:06:14;;;;;;;;;;;;;;;;;;5016811;28;9176;-71
2020/12/11 22:08:40;;;;;;;;;;;;;;;;;;5015729;28;9138;-70
2020/12/11 22:11:08;;;;;;;;;;;;;;;;;;5023465;28;10559;-71
2020/12/11 22:13:33;;;;;;;;;;;;;;;;;;5017620;28;9308;-71
2020/12/11 22:16:00;;;;;;;;;;;;;;;;;;5015390;28;3764;-72
2020/12/11 22:18:26;;;;;;;;;;;;;;;;;;5022580;28;9547;-71
2020/12/11 22:20:52;;;;;;;;;;;;;;;;;;5019968;28;9334;-71
2020/12/11 22:23:23;;;;;;;;;;;;;;;;;;5024879;28;10660;-71
2020/12/11 22:25:51;;;;;;;;;;;;;;;;;;5019613;28;9212;-71
2020/12/11 22:28:17;;;;;;;;;;;;;;;;;;5017949;28;9131;-70
2020/12/11 22:30:44;;;;;;;;;;;;;;;;;;5018428;28;4108;-70
2020/12/11 22:33:11;;;;;;;;;;;;;;;;;;5023944;28;9287;-71
2020/12/11 22:35:37;;;;;;;;;;;;;;;;;;5019158;28;9119;-72
2020/12/11 22:38:03;;;;;;;;;;;;;;;;;;5020614;28;8820;-70
2020/12/11 22:40:29;;;;;;;;;;;;;;;;;;5011536;28;10335;-71
2020/12/11 22:42:55;;;;;;;;;;;;;;;;;;5017968;28;4127;-71
2020/12/11 22:45:21;;;;;;;;;;;;;;;;;;5014672;28;9419;-71
2020/12/11 22:47:47;;;;;;;;;;;;;;;;;;5027061;28;9132;-71
2020/12/11 22:50:14;;;;;;;;;;;;;;;;;;5023788;28;9262;-71
2020/12/11 22:52:40;;;;;;;;;;;;;;;;;;5017039;28;10545;-71
2020/12/11 22:55:06;;;;;;;;;;;;;;;;;;5014201;28;10389;-72
2020/12/11 22:57:32;;;;;;;;;;;;;;;;;;5029367;28;11440;-71
2020/12/11 23:00:01;;;;;;;;;;;;;;;;;;5016938;28;10590;-71
2020/12/11 23:02:27;;;;;;;;;;;;;;;;;;5024088;28;6055;-71
2020/12/11 23:04:53;;;;;;;;;;;;;;;;;;5035708;28;9181;-71
2020/12/11 23:07:20;;;;;;;;;;;;;;;;;;5023680;28;8880;-71
2020/12/11 23:09:46;;;;;;;;;;;;;;;;;;5033282;28;4041;-72
2020/12/11 23:12:12;;;;;;;;;;;;;;;;;;5016766;28;9115;-71
2020/12/11 23:14:38;;;;;;;;;;;;;;;;;;5017037;28;9141;-71
2020/12/11 23:17:04;;;;;;;;;;;;;;;;;;5016410;28;9174;-71
2020/12/11 23:19:30;;;;;;;;;;;;;;;;;;5026737;28;9190;-71
2020/12/11 23:21:56;;;;;;;;;;;;;;;;;;5032470;28;3753;-71
2020/12/11 23:24:22;;;;;;;;;;;;;;;;;;5026679;28;10427;-71
2020/12/11 23:26:48;;;;;;;;;;;;;;;;;;5019728;28;8210;-70
2020/12/11 23:29:14;;;;;;;;;;;;;;;;;;5011895;28;9228;-71
2020/12/11 23:31:41;;;;;;;;;;;;;;;;;;5015022;28;10440;-71
2020/12/11 23:34:10;;;;;;;;;;;;;;;;;;5013427;28;11432;-71
2020/12/11 23:36:35;;;;;;;;;;;;;;;;;;5016573;28;9666;-71
2020/12/11 23:39:01;;;;;;;;;;;;;;;;;;5012767;28;9151;-71
2020/12/11 23:41:28;;;;;;;;;;;;;;;;;;5016393;28;9136;-73
2020/12/11 23:43:54;;;;;;;;;;;;;;;;;;5013869;28;9267;-72
2020/12/11 23:46:20;;;;;;;;;;;;;;;;;;5020212;28;9290;-71
2020/12/11 23:48:46;;;;;;;;;;;;;;;;;;5021644;28;4104;-72
2020/12/11 23:51:12;;;;;;;;;;;;;;;;;;5020707;28;9371;-71
2020/12/11 23:53:38;;;;;;;;;;;;;;;;;;5021619;28;10599;-69
2020/12/11 23:56:04;;;;;;;;;;;;;;;;;;5019098;28;9293;-71
2020/12/11 23:58:31;;;;;;;;;;;;;;;;;;5022334;28;9304;-71
